EDT,Max TemperatureF,Mean TemperatureF,Min TemperatureF,Max Dew PointF,MeanDew PointF,Min DewpointF,Max Humidity, Mean Humidity, Min Humidity, Max Sea Level PressureIn, Mean Sea Level PressureIn, Min Sea Level PressureIn, Max VisibilityMiles, Mean VisibilityMiles, Min VisibilityMiles, Max Wind SpeedMPH, Mean Wind SpeedMPH, Max Gust SpeedMPH,PrecipitationIn, CloudCover, Events, WindDirDegrees
2013-3-1,37,32,28,30,26,23,93,72,60,29.66,29.62,29.54,10,9,0,12,3,17,0.00,7,,309
2013-3-2,41,34,28,25,23,21,86,65,52,29.65,29.63,29.60,10,9,2,13,6,20,0.00,6,,278
2013-3-3,37,32,28,27,24,19,86,74,56,29.63,29.59,29.54,10,8,3,18,6,24,0.00,7,,247
2013-3-4,33,30,26,21,18,16,80,66,56,29.75,29.62,29.58,10,9,2,16,10,24,0.00,8,,273
2013-3-5,42,34,26,28,23,18,87,66,46,30.07,29.94,29.76,10,10,10,9,5,,0.00,7,,300
2013-3-6,35,32,30,30,26,21,87,74,64,30.19,30.14,30.07,10,9,2,24,12,32,0.00,8,,56
2013-3-7,33,32,30,27,22,19,86,71,60,30.16,30.11,30.05,10,9,1,20,12,30,0.00,8,,46
2013-3-8,46,36,26,27,19,14,93,55,29,30.19,30.08,30.01,10,9,2,14,7,18,0.00,3,,42
2013-3-9,53,36,19,21,15,7,86,52,15,30.35,30.24,30.17,10,10,9,7,1,,0.00,0,,102
2013-3-10,46,34,21,27,23,18,86,67,40,30.39,30.32,30.26,10,10,9,8,2,,0.00,1,,84
2013-3-11,48,39,30,36,28,27,87,66,43,30.28,30.17,30.10,10,10,10,9,4,,0.00,1,,218
2013-3-12,50,42,35,46,40,30,93,85,70,30.11,29.92,29.69,10,8,0,13,5,24,0.16,7,,171
2013-3-13,46,37,28,45,28,21,93,67,42,29.75,29.72,29.69,10,10,1,18,9,24,0.03,3,,252
2013-3-14,32,24,17,25,14,0,86,59,44,29.79,29.71,29.64,10,10,4,17,8,28,0.00,5,,264
2013-3-15,35,25,15,27,10,0,86,55,32,29.80,29.70,29.58,10,9,2,21,10,29,0.00,2,,260
2013-3-16,32,26,21,18,10,5,74,51,35,29.86,29.77,29.65,10,10,10,12,7,18,0.00,2,,272
2013-3-17,28,22,15,10,3,-6,73,45,26,30.28,30.03,29.86,10,10,10,21,5,38,0.00,1,,279
2013-3-18,33,20,8,16,1,-6,67,39,22,30.41,30.31,30.21,10,10,10,8,4,,0.00,1,,231
2013-3-19,30,26,23,27,23,18,93,85,74,30.20,29.91,29.70,3,1,0,18,9,26,0.02,8,,51
2013-3-20,33,27,21,21,18,14,93,66,48,29.72,29.66,29.63,10,9,2,23,8,30,0.00,6,,240
2013-3-21,37,28,19,16,12,9,74,53,33,29.74,29.66,29.58,10,10,0,14,8,18,0.00,0,,218
2013-3-22,35,27,19,21,14,10,74,55,35,29.68,29.62,29.58,10,10,10,13,4,22,0.00,5,,260
2013-3-23,37,30,24,19,17,14,69,55,41,29.73,29.65,29.58,10,10,10,20,10,33,0.00,6,,270
2013-3-24,42,34,26,21,20,19,74,53,39,29.81,29.76,29.72,10,10,10,20,8,26,0.00,3,,295
2013-3-25,39,29,19,27,22,16,93,71,56,29.77,29.66,29.55,10,10,10,13,3,17,0.00,5,,53
2013-3-26,46,38,30,27,20,16,75,52,29,29.76,29.65,29.57,10,10,10,14,4,20,0.00,2,,315
2013-3-27,48,36,24,30,23,18,80,57,34,29.88,29.78,29.74,10,10,10,18,6,25,0.00,3,,293
2013-3-28,46,40,33,32,29,27,87,70,46,30.00,29.93,29.88,10,10,5,12,2,,0.00,8,,273
2013-3-29,50,42,33,34,29,27,76,62,43,30.03,30.00,29.97,10,10,10,15,5,25,0.00,6,,262
2013-3-30,51,40,30,28,20,9,75,49,20,30.09,30.04,30.00,10,10,10,13,5,20,0.00,2,,269
2013-3-31,55,40,24,36,21,18,87,52,23,30.10,30.00,29.79,10,10,8,16,4,26,0.00,1,,187